NPV7592 LPFR-LIEE
Flight info
| Callsign | NPV7592 |
|---|---|
| Flight time | 2h 0m |
| Altitude | 36000 |
| Route | OSLEP N747 YES M985 ASTRO Z224 LASPO M871 PTC N851 MHN M603 BAVON/N0444F370 DCT XATOS DCT KOVAS |
| Aircraft | A320/M-SDE3FGHIRWY/LB1 |
Departure
| Time | 2026-05-06 11:02 |
|---|---|
| Airport | Faro - Gago Coutinho International Airport (LPFR) |
Arrival
| Time | 2026-05-06 13:02 |
|---|---|
| Airport | Cagliari Elmas Airport (LIEE) |
| Time | Latitude | Longitude | Altitude | Speed | Heading |
|---|---|---|---|---|---|
| 2026-05-06 10:31 | 37.01908 | -7.96769 | 20 ft | 0 kts | 9° |
| 2026-05-06 10:46 | 37.01908 | -7.96770 | 20 ft | 0 kts | 9° |
| 2026-05-06 10:52 | 37.01906 | -7.96770 | 20 ft | 2 kts | 9° |
| 2026-05-06 10:53 | 37.01881 | -7.96775 | 23 ft | 4 kts | 9° |
| 2026-05-06 10:53 | 37.01858 | -7.96780 | 22 ft | 4 kts | 11° |
| 2026-05-06 10:53 | 37.01835 | -7.96791 | 22 ft | 4 kts | 52° |
| 2026-05-06 10:53 | 37.01828 | -7.96818 | 22 ft | 2 kts | 100° |
| 2026-05-06 10:54 | 37.01829 | -7.96825 | 24 ft | 0 kts | 100° |
| 2026-05-06 10:57 | 37.01825 | -7.96799 | 23 ft | 8 kts | 100° |
| 2026-05-06 10:57 | 37.01814 | -7.96728 | 23 ft | 8 kts | 100° |
| 2026-05-06 10:58 | 37.01806 | -7.96670 | 20 ft | 6 kts | 100° |
| 2026-05-06 10:58 | 37.01800 | -7.96623 | 21 ft | 5 kts | 98° |
| 2026-05-06 10:58 | 37.01792 | -7.96560 | 20 ft | 10 kts | 105° |
| 2026-05-06 10:58 | 37.01741 | -7.96520 | 20 ft | 9 kts | 186° |
| 2026-05-06 10:59 | 37.01684 | -7.96532 | 20 ft | 11 kts | 190° |
| 2026-05-06 10:59 | 37.01629 | -7.96521 | 20 ft | 13 kts | 144° |
| 2026-05-06 10:59 | 37.01599 | -7.96394 | 20 ft | 13 kts | 100° |
| 2026-05-06 10:59 | 37.01580 | -7.96263 | 20 ft | 18 kts | 101° |
| 2026-05-06 11:00 | 37.01556 | -7.96092 | 21 ft | 16 kts | 100° |
| 2026-05-06 11:00 | 37.01534 | -7.95931 | 20 ft | 11 kts | 99° |
| 2026-05-06 11:00 | 37.01525 | -7.95873 | 21 ft | 10 kts | 106° |
| 2026-05-06 11:00 | 37.01478 | -7.95842 | 22 ft | 16 kts | 162° |
| 2026-05-06 11:01 | 37.01394 | -7.95849 | 20 ft | 10 kts | 189° |
| 2026-05-06 11:01 | 37.01356 | -7.95971 | 22 ft | 35 kts | 281° |
| 2026-05-06 11:01 | 37.01443 | -7.96572 | 21 ft | 102 kts | 280° |
| 2026-05-06 11:01 | 37.01597 | -7.97673 | 50 ft | 150 kts | 281° |
| 2026-05-06 11:02 | 37.01788 | -7.98938 | 725 ft | 146 kts | 282° |
| 2026-05-06 11:02 | 37.01972 | -8.00189 | 1293 ft | 146 kts | 285° |
| 2026-05-06 11:02 | 37.02156 | -8.01451 | 1911 ft | 148 kts | 287° |
| 2026-05-06 11:02 | 37.02344 | -8.02729 | 2598 ft | 149 kts | 285° |
| 2026-05-06 11:03 | 37.02530 | -8.04005 | 3186 ft | 149 kts | 285° |
| 2026-05-06 11:03 | 37.02726 | -8.05345 | 3517 ft | 166 kts | 285° |
| 2026-05-06 11:03 | 37.02951 | -8.06859 | 3763 ft | 187 kts | 284° |
| 2026-05-06 11:03 | 37.02862 | -8.08572 | 3967 ft | 215 kts | 248° |
| 2026-05-06 11:04 | 37.01762 | -8.09972 | 4215 ft | 244 kts | 205° |
| 2026-05-06 11:04 | 37.00015 | -8.10250 | 4561 ft | 269 kts | 167° |
| 2026-05-06 11:04 | 36.98370 | -8.09119 | 5180 ft | 277 kts | 130° |
| 2026-05-06 11:04 | 36.97384 | -8.07065 | 5967 ft | 278 kts | 107° |
| 2026-05-06 11:05 | 36.97096 | -8.04687 | 6698 ft | 280 kts | 83° |
| 2026-05-06 11:05 | 36.97424 | -8.02280 | 7426 ft | 284 kts | 76° |
| 2026-05-06 11:05 | 36.97820 | -7.99837 | 8148 ft | 289 kts | 76° |
| 2026-05-06 11:05 | 36.98228 | -7.97346 | 8881 ft | 295 kts | 76° |
| 2026-05-06 11:06 | 36.98644 | -7.94813 | 9612 ft | 300 kts | 76° |
| 2026-05-06 11:06 | 36.99066 | -7.92222 | 10251 ft | 309 kts | 76° |
| 2026-05-06 11:06 | 36.99510 | -7.89490 | 10469 ft | 333 kts | 77° |
| 2026-05-06 11:06 | 36.99985 | -7.86557 | 10639 ft | 355 kts | 77° |
| 2026-05-06 11:07 | 37.00484 | -7.83463 | 11018 ft | 368 kts | 77° |
| 2026-05-06 11:07 | 37.00986 | -7.80327 | 11611 ft | 373 kts | 77° |
| 2026-05-06 11:07 | 37.01497 | -7.77110 | 12258 ft | 378 kts | 77° |
| 2026-05-06 11:07 | 37.02014 | -7.73850 | 12914 ft | 382 kts | 77° |
| 2026-05-06 11:08 | 37.02530 | -7.70590 | 13552 ft | 386 kts | 77° |
| 2026-05-06 11:08 | 37.03058 | -7.67269 | 14144 ft | 390 kts | 77° |
| 2026-05-06 11:08 | 37.03593 | -7.63910 | 14707 ft | 395 kts | 77° |
| 2026-05-06 11:08 | 37.04124 | -7.60565 | 15259 ft | 399 kts | 77° |
| 2026-05-06 11:09 | 37.04667 | -7.57128 | 15814 ft | 403 kts | 77° |
| 2026-05-06 11:09 | 37.05210 | -7.53671 | 16365 ft | 406 kts | 77° |
| 2026-05-06 11:09 | 37.05757 | -7.50187 | 16899 ft | 410 kts | 77° |
| 2026-05-06 11:09 | 37.06313 | -7.46661 | 17433 ft | 414 kts | 77° |
| 2026-05-06 11:10 | 37.06871 | -7.43105 | 17941 ft | 418 kts | 77° |
| 2026-05-06 11:10 | 37.07545 | -7.39552 | 18431 ft | 421 kts | 70° |
| 2026-05-06 11:10 | 37.08654 | -7.36161 | 18869 ft | 422 kts | 60° |
| 2026-05-06 11:10 | 37.10115 | -7.32968 | 19309 ft | 423 kts | 57° |
| 2026-05-06 11:11 | 37.11615 | -7.29776 | 19770 ft | 427 kts | 57° |
| 2026-05-06 11:11 | 37.13122 | -7.26557 | 20221 ft | 430 kts | 57° |
| 2026-05-06 11:11 | 37.14634 | -7.23312 | 20669 ft | 433 kts | 57° |
| 2026-05-06 11:11 | 37.16063 | -7.19967 | 21088 ft | 438 kts | 64° |
| 2026-05-06 11:12 | 37.17082 | -7.16349 | 21513 ft | 443 kts | 74° |
| 2026-05-06 11:12 | 37.17790 | -7.12626 | 21915 ft | 447 kts | 75° |
| 2026-05-06 11:12 | 37.18510 | -7.08827 | 22332 ft | 450 kts | 75° |
| 2026-05-06 11:12 | 37.19236 | -7.04996 | 22732 ft | 453 kts | 75° |
| 2026-05-06 11:13 | 37.19967 | -7.01145 | 23123 ft | 456 kts | 75° |
| 2026-05-06 11:13 | 37.20704 | -6.97265 | 23524 ft | 459 kts | 75° |
| 2026-05-06 11:13 | 37.21440 | -6.93357 | 23865 ft | 462 kts | 75° |
| 2026-05-06 11:13 | 37.22179 | -6.89420 | 24175 ft | 465 kts | 75° |
| 2026-05-06 11:14 | 37.22921 | -6.85455 | 24474 ft | 468 kts | 75° |
| 2026-05-06 11:14 | 37.23665 | -6.81467 | 24774 ft | 471 kts | 76° |
| 2026-05-06 11:14 | 37.24411 | -6.77450 | 25074 ft | 474 kts | 76° |
| 2026-05-06 11:14 | 37.25160 | -6.73405 | 25370 ft | 477 kts | 76° |
| 2026-05-06 11:15 | 37.25912 | -6.69335 | 25663 ft | 480 kts | 76° |
| 2026-05-06 11:15 | 37.26669 | -6.65233 | 25951 ft | 483 kts | 76° |
| 2026-05-06 11:15 | 37.27423 | -6.61141 | 26241 ft | 486 kts | 76° |
| 2026-05-06 11:15 | 37.28188 | -6.56988 | 26533 ft | 489 kts | 76° |
| 2026-05-06 11:16 | 37.28960 | -6.52807 | 26827 ft | 492 kts | 76° |
| 2026-05-06 11:16 | 37.29734 | -6.48606 | 27101 ft | 495 kts | 76° |
| 2026-05-06 11:16 | 37.30512 | -6.44378 | 27390 ft | 497 kts | 76° |
| 2026-05-06 11:16 | 37.31291 | -6.40120 | 27658 ft | 500 kts | 76° |
| 2026-05-06 11:17 | 37.32065 | -6.35881 | 27920 ft | 503 kts | 76° |
| 2026-05-06 11:17 | 37.32848 | -6.31585 | 28156 ft | 506 kts | 77° |
| 2026-05-06 11:17 | 37.33631 | -6.27266 | 28416 ft | 508 kts | 77° |
| 2026-05-06 11:17 | 37.34415 | -6.22924 | 28667 ft | 511 kts | 77° |
| 2026-05-06 11:18 | 37.35206 | -6.18538 | 28913 ft | 513 kts | 77° |
| 2026-05-06 11:18 | 37.35989 | -6.14192 | 29158 ft | 516 kts | 77° |
| 2026-05-06 11:18 | 37.36783 | -6.09773 | 29411 ft | 518 kts | 77° |
| 2026-05-06 11:18 | 37.37576 | -6.05354 | 29737 ft | 518 kts | 77° |
| 2026-05-06 11:19 | 37.38372 | -6.00929 | 30062 ft | 519 kts | 77° |
| 2026-05-06 11:19 | 37.39155 | -5.96569 | 30353 ft | 518 kts | 77° |
| 2026-05-06 11:19 | 37.39943 | -5.92134 | 30635 ft | 518 kts | 77° |
| 2026-05-06 11:19 | 37.40728 | -5.87713 | 30929 ft | 518 kts | 77° |
| 2026-05-06 11:20 | 37.41513 | -5.83278 | 31252 ft | 517 kts | 77° |
| 2026-05-06 11:20 | 37.42301 | -5.78854 | 31542 ft | 517 kts | 76° |
| 2026-05-06 11:20 | 37.43359 | -5.74582 | 31831 ft | 516 kts | 68° |
| 2026-05-06 11:20 | 37.44783 | -5.70436 | 32116 ft | 515 kts | 65° |
| 2026-05-06 11:21 | 37.46242 | -5.66303 | 32424 ft | 515 kts | 65° |
| 2026-05-06 11:21 | 37.47697 | -5.62175 | 32713 ft | 515 kts | 65° |
| 2026-05-06 11:21 | 37.49132 | -5.58090 | 32993 ft | 515 kts | 65° |
| 2026-05-06 11:21 | 37.50576 | -5.53958 | 33284 ft | 515 kts | 65° |
| 2026-05-06 11:22 | 37.52012 | -5.49832 | 33567 ft | 515 kts | 65° |
| 2026-05-06 11:22 | 37.53452 | -5.45678 | 33855 ft | 516 kts | 65° |
| 2026-05-06 11:22 | 37.54872 | -5.41578 | 33954 ft | 516 kts | 65° |
| 2026-05-06 11:23 | 37.57750 | -5.33286 | 33955 ft | 516 kts | 65° |
| 2026-05-06 11:23 | 37.60629 | -5.24971 | 33962 ft | 516 kts | 65° |
| 2026-05-06 11:24 | 37.63489 | -5.16705 | 33955 ft | 516 kts | 65° |
| 2026-05-06 11:24 | 37.66338 | -5.08428 | 33954 ft | 516 kts | 65° |
| 2026-05-06 11:25 | 37.69197 | -5.00094 | 33952 ft | 516 kts | 65° |
| 2026-05-06 11:25 | 37.72051 | -4.91771 | 33947 ft | 516 kts | 65° |
| 2026-05-06 11:26 | 37.74894 | -4.83453 | 33937 ft | 516 kts | 66° |
| 2026-05-06 11:26 | 37.77728 | -4.75125 | 33937 ft | 516 kts | 66° |
| 2026-05-06 11:27 | 37.80547 | -4.66842 | 33933 ft | 516 kts | 66° |
| 2026-05-06 11:27 | 37.83376 | -4.58498 | 33935 ft | 516 kts | 66° |
| 2026-05-06 11:28 | 37.86195 | -4.50139 | 33932 ft | 517 kts | 66° |
| 2026-05-06 11:28 | 37.88994 | -4.41760 | 33931 ft | 517 kts | 66° |
| 2026-05-06 11:29 | 37.91793 | -4.33374 | 33924 ft | 517 kts | 66° |
| 2026-05-06 11:29 | 37.94599 | -4.24991 | 33922 ft | 517 kts | 66° |
| 2026-05-06 11:30 | 37.97417 | -4.16593 | 33922 ft | 518 kts | 66° |
| 2026-05-06 11:30 | 38.00211 | -4.08183 | 33924 ft | 518 kts | 66° |
| 2026-05-06 11:31 | 38.02994 | -3.99755 | 33925 ft | 518 kts | 66° |
| 2026-05-06 11:31 | 38.05779 | -3.91328 | 33927 ft | 518 kts | 66° |
| 2026-05-06 11:32 | 38.08538 | -3.82957 | 33932 ft | 518 kts | 66° |
| 2026-05-06 11:32 | 38.11303 | -3.74567 | 33931 ft | 511 kts | 67° |
| 2026-05-06 11:33 | 38.14030 | -3.66256 | 33920 ft | 510 kts | 68° |
| 2026-05-06 11:33 | 38.16076 | -3.57664 | 33917 ft | 508 kts | 79° |
| 2026-05-06 11:34 | 38.17546 | -3.48876 | 33922 ft | 508 kts | 79° |
| 2026-05-06 11:34 | 38.19028 | -3.40085 | 33919 ft | 509 kts | 79° |
| 2026-05-06 11:35 | 38.20505 | -3.31284 | 33923 ft | 509 kts | 79° |
| 2026-05-06 11:35 | 38.21958 | -3.22528 | 33923 ft | 510 kts | 79° |
| 2026-05-06 11:36 | 38.23419 | -3.13708 | 33927 ft | 510 kts | 79° |
| 2026-05-06 11:36 | 38.24881 | -3.04883 | 33931 ft | 510 kts | 79° |
| 2026-05-06 11:37 | 38.26327 | -2.96054 | 33944 ft | 510 kts | 80° |
| 2026-05-06 11:37 | 38.27760 | -2.87218 | 33949 ft | 510 kts | 80° |
| 2026-05-06 11:38 | 38.29185 | -2.78382 | 33942 ft | 509 kts | 80° |
| 2026-05-06 11:38 | 38.30616 | -2.69564 | 33939 ft | 508 kts | 80° |
| 2026-05-06 11:39 | 38.32035 | -2.60741 | 33942 ft | 508 kts | 80° |
| 2026-05-06 11:39 | 38.33428 | -2.51986 | 33938 ft | 508 kts | 80° |
| 2026-05-06 11:40 | 38.34826 | -2.43170 | 33940 ft | 508 kts | 79° |
| 2026-05-06 11:40 | 38.37118 | -2.34666 | 33946 ft | 509 kts | 62° |
| 2026-05-06 11:41 | 38.41055 | -2.27216 | 33949 ft | 507 kts | 49° |
| 2026-05-06 11:41 | 38.45420 | -2.20154 | 33952 ft | 507 kts | 50° |
| 2026-05-06 11:42 | 38.49781 | -2.13072 | 33951 ft | 507 kts | 50° |
| 2026-05-06 11:42 | 38.54137 | -2.05987 | 33959 ft | 507 kts | 50° |
| 2026-05-06 11:43 | 38.58499 | -1.98891 | 33960 ft | 507 kts | 50° |
| 2026-05-06 11:43 | 38.62856 | -1.91786 | 33964 ft | 507 kts | 50° |
| 2026-05-06 11:44 | 38.69353 | -1.81130 | 33974 ft | 509 kts | 50° |
| 2026-05-06 11:44 | 38.73706 | -1.73965 | 33977 ft | 509 kts | 50° |
| 2026-05-06 11:45 | 38.78025 | -1.66845 | 33977 ft | 509 kts | 50° |
| 2026-05-06 11:45 | 38.82365 | -1.59671 | 33973 ft | 509 kts | 50° |
| 2026-05-06 11:46 | 38.86711 | -1.52491 | 33968 ft | 509 kts | 50° |
| 2026-05-06 11:46 | 38.91054 | -1.45296 | 34048 ft | 511 kts | 50° |
| 2026-05-06 11:47 | 38.93233 | -1.41672 | 34287 ft | 512 kts | 50° |
| 2026-05-06 11:47 | 38.95385 | -1.38082 | 34551 ft | 511 kts | 50° |
| 2026-05-06 11:47 | 38.97557 | -1.34456 | 34811 ft | 511 kts | 50° |
| 2026-05-06 11:47 | 38.99707 | -1.30867 | 35055 ft | 510 kts | 50° |
| 2026-05-06 11:48 | 39.01839 | -1.27211 | 35302 ft | 511 kts | 55° |
| 2026-05-06 11:48 | 39.03562 | -1.23218 | 35535 ft | 511 kts | 64° |
| 2026-05-06 11:48 | 39.05070 | -1.19050 | 35755 ft | 511 kts | 64° |
| 2026-05-06 11:48 | 39.06575 | -1.14898 | 35934 ft | 511 kts | 64° |
| 2026-05-06 11:49 | 39.09566 | -1.06649 | 35966 ft | 510 kts | 64° |
| 2026-05-06 11:49 | 39.12561 | -0.98355 | 35961 ft | 510 kts | 64° |
| 2026-05-06 11:50 | 39.15544 | -0.90063 | 35968 ft | 510 kts | 64° |
| 2026-05-06 11:50 | 39.18517 | -0.81763 | 35961 ft | 510 kts | 64° |
| 2026-05-06 11:51 | 39.21482 | -0.73463 | 35959 ft | 509 kts | 65° |
| 2026-05-06 11:51 | 39.24424 | -0.65218 | 35959 ft | 509 kts | 64° |
| 2026-05-06 11:52 | 39.27262 | -0.56851 | 35969 ft | 509 kts | 72° |
| 2026-05-06 11:52 | 39.28604 | -0.47927 | 35954 ft | 506 kts | 88° |
| 2026-05-06 11:53 | 39.29080 | -0.38848 | 35952 ft | 506 kts | 88° |
| 2026-05-06 11:53 | 39.29566 | -0.29777 | 35961 ft | 507 kts | 88° |
| 2026-05-06 11:54 | 39.30041 | -0.20685 | 35964 ft | 507 kts | 88° |
| 2026-05-06 11:54 | 39.30508 | -0.11590 | 35969 ft | 507 kts | 88° |
| 2026-05-06 11:55 | 39.30965 | -0.02560 | 35969 ft | 508 kts | 88° |
| 2026-05-06 11:55 | 39.31415 | 0.06544 | 35975 ft | 508 kts | 89° |
| 2026-05-06 11:56 | 39.31865 | 0.15650 | 35977 ft | 508 kts | 89° |
| 2026-05-06 11:56 | 39.32233 | 0.23221 | 35979 ft | 508 kts | 89° |
| 2026-05-06 11:57 | 39.32664 | 0.32337 | 35979 ft | 508 kts | 89° |
| 2026-05-06 11:57 | 39.33082 | 0.41436 | 35982 ft | 507 kts | 89° |
| 2026-05-06 11:58 | 39.33493 | 0.50528 | 35976 ft | 507 kts | 89° |
| 2026-05-06 11:58 | 39.33908 | 0.59634 | 35975 ft | 507 kts | 89° |
| 2026-05-06 11:59 | 39.34321 | 0.68725 | 35972 ft | 506 kts | 89° |
| 2026-05-06 11:59 | 39.34712 | 0.77746 | 35975 ft | 506 kts | 89° |
| 2026-05-06 12:00 | 39.35090 | 0.86817 | 35976 ft | 506 kts | 89° |
| 2026-05-06 12:00 | 39.35472 | 0.95916 | 35978 ft | 505 kts | 89° |
| 2026-05-06 12:01 | 39.35848 | 1.04924 | 35974 ft | 505 kts | 89° |
| 2026-05-06 12:01 | 39.36222 | 1.14013 | 35967 ft | 505 kts | 89° |
| 2026-05-06 12:02 | 39.36590 | 1.23080 | 35971 ft | 505 kts | 90° |
| 2026-05-06 12:02 | 39.36934 | 1.32136 | 35957 ft | 504 kts | 90° |
| 2026-05-06 12:03 | 39.37269 | 1.41193 | 35955 ft | 504 kts | 90° |
| 2026-05-06 12:03 | 39.37605 | 1.50241 | 35957 ft | 504 kts | 90° |
| 2026-05-06 12:04 | 39.37933 | 1.59284 | 35955 ft | 504 kts | 90° |
| 2026-05-06 12:04 | 39.38257 | 1.68325 | 35954 ft | 503 kts | 90° |
| 2026-05-06 12:05 | 39.38575 | 1.77360 | 35955 ft | 503 kts | 90° |
| 2026-05-06 12:05 | 39.38876 | 1.86325 | 35955 ft | 502 kts | 90° |
| 2026-05-06 12:06 | 39.39168 | 1.95346 | 35958 ft | 502 kts | 90° |
| 2026-05-06 12:06 | 39.39464 | 2.04360 | 35956 ft | 502 kts | 90° |
| 2026-05-06 12:07 | 39.39760 | 2.13385 | 35952 ft | 501 kts | 90° |
| 2026-05-06 12:07 | 39.40040 | 2.22338 | 35950 ft | 501 kts | 90° |
| 2026-05-06 12:08 | 39.40312 | 2.31354 | 35941 ft | 501 kts | 91° |
| 2026-05-06 12:08 | 39.40572 | 2.40360 | 35937 ft | 501 kts | 91° |
| 2026-05-06 12:09 | 39.40826 | 2.49304 | 35935 ft | 501 kts | 91° |
| 2026-05-06 12:09 | 39.41075 | 2.58297 | 35935 ft | 500 kts | 91° |
| 2026-05-06 12:10 | 39.41316 | 2.67301 | 35939 ft | 500 kts | 91° |
| 2026-05-06 12:10 | 39.41554 | 2.76306 | 35936 ft | 500 kts | 91° |
| 2026-05-06 12:11 | 39.41785 | 2.85262 | 35942 ft | 500 kts | 91° |
| 2026-05-06 12:11 | 39.42011 | 2.94274 | 35944 ft | 500 kts | 91° |
| 2026-05-06 12:12 | 39.42226 | 3.03249 | 35947 ft | 499 kts | 91° |
| 2026-05-06 12:12 | 39.42429 | 3.12172 | 35956 ft | 499 kts | 91° |
| 2026-05-06 12:13 | 39.42785 | 3.21142 | 35958 ft | 502 kts | 83° |
| 2026-05-06 12:13 | 39.44768 | 3.29790 | 35964 ft | 504 kts | 64° |
| 2026-05-06 12:14 | 39.48254 | 3.37640 | 35960 ft | 503 kts | 58° |
| 2026-05-06 12:14 | 39.51842 | 3.45412 | 35962 ft | 503 kts | 59° |
| 2026-05-06 12:15 | 39.55411 | 3.53228 | 35969 ft | 504 kts | 59° |
| 2026-05-06 12:15 | 39.58959 | 3.61018 | 35969 ft | 504 kts | 59° |
| 2026-05-06 12:16 | 39.62536 | 3.68865 | 35972 ft | 505 kts | 59° |
| 2026-05-06 12:16 | 39.66104 | 3.76704 | 35978 ft | 505 kts | 59° |
| 2026-05-06 12:17 | 39.69676 | 3.84579 | 35981 ft | 505 kts | 59° |
| 2026-05-06 12:17 | 39.73215 | 3.92397 | 35982 ft | 505 kts | 59° |
| 2026-05-06 12:18 | 39.76778 | 4.00284 | 35977 ft | 505 kts | 59° |
| 2026-05-06 12:18 | 39.80336 | 4.08173 | 35982 ft | 505 kts | 59° |
| 2026-05-06 12:19 | 39.83860 | 4.16034 | 35982 ft | 505 kts | 59° |
| 2026-05-06 12:19 | 39.86872 | 4.24206 | 35966 ft | 504 kts | 73° |
| 2026-05-06 12:20 | 39.88735 | 4.33001 | 35977 ft | 503 kts | 76° |
| 2026-05-06 12:20 | 39.90555 | 4.41805 | 35967 ft | 503 kts | 76° |
| 2026-05-06 12:21 | 39.92362 | 4.50565 | 35976 ft | 503 kts | 76° |
| 2026-05-06 12:21 | 39.94182 | 4.59370 | 35971 ft | 503 kts | 77° |
| 2026-05-06 12:22 | 39.95982 | 4.68192 | 35969 ft | 503 kts | 77° |
| 2026-05-06 12:22 | 39.97763 | 4.76985 | 35972 ft | 503 kts | 77° |
| 2026-05-06 12:23 | 39.99665 | 4.85709 | 35969 ft | 503 kts | 75° |
| 2026-05-06 12:23 | 40.01735 | 4.94430 | 35973 ft | 502 kts | 74° |
| 2026-05-06 12:24 | 40.03788 | 5.03151 | 35969 ft | 502 kts | 75° |
| 2026-05-06 12:24 | 40.05776 | 5.11846 | 35973 ft | 502 kts | 75° |
| 2026-05-06 12:25 | 40.07739 | 5.20595 | 35969 ft | 501 kts | 75° |
| 2026-05-06 12:25 | 40.09705 | 5.29324 | 35966 ft | 501 kts | 75° |
| 2026-05-06 12:26 | 40.11671 | 5.38046 | 35969 ft | 500 kts | 75° |
| 2026-05-06 12:26 | 40.13631 | 5.46761 | 35964 ft | 500 kts | 75° |
| 2026-05-06 12:27 | 40.15580 | 5.55489 | 35972 ft | 500 kts | 76° |
| 2026-05-06 12:27 | 40.17505 | 5.64182 | 35965 ft | 500 kts | 76° |
| 2026-05-06 12:28 | 40.19429 | 5.72914 | 35966 ft | 499 kts | 76° |
| 2026-05-06 12:28 | 40.21366 | 5.81658 | 35965 ft | 499 kts | 76° |
| 2026-05-06 12:29 | 40.23283 | 5.90328 | 35965 ft | 499 kts | 76° |
| 2026-05-06 12:29 | 40.25083 | 5.99088 | 35903 ft | 498 kts | 82° |
| 2026-05-06 12:30 | 40.25444 | 6.03560 | 35701 ft | 492 kts | 93° |
| 2026-05-06 12:30 | 40.25266 | 6.07991 | 35524 ft | 486 kts | 102° |
| 2026-05-06 12:30 | 40.24613 | 6.12302 | 35320 ft | 480 kts | 111° |
| 2026-05-06 12:30 | 40.23552 | 6.16437 | 35073 ft | 475 kts | 116° |
| 2026-05-06 12:31 | 40.22419 | 6.20445 | 34930 ft | 475 kts | 116° |
| 2026-05-06 12:31 | 40.21277 | 6.24506 | 34971 ft | 475 kts | 116° |
| 2026-05-06 12:31 | 40.18985 | 6.32623 | 34966 ft | 475 kts | 116° |
| 2026-05-06 12:32 | 40.16677 | 6.40712 | 34967 ft | 474 kts | 116° |
| 2026-05-06 12:32 | 40.14369 | 6.48788 | 34963 ft | 474 kts | 116° |
| 2026-05-06 12:33 | 40.12065 | 6.56851 | 34962 ft | 473 kts | 116° |
| 2026-05-06 12:33 | 40.09751 | 6.64910 | 34956 ft | 473 kts | 116° |
| 2026-05-06 12:34 | 40.07449 | 6.72897 | 34954 ft | 473 kts | 116° |
| 2026-05-06 12:34 | 40.05126 | 6.80933 | 34960 ft | 473 kts | 116° |
| 2026-05-06 12:35 | 40.02791 | 6.88952 | 34963 ft | 472 kts | 116° |
| 2026-05-06 12:35 | 40.00472 | 6.96926 | 34969 ft | 472 kts | 116° |
| 2026-05-06 12:36 | 39.98139 | 7.04934 | 34968 ft | 471 kts | 116° |
| 2026-05-06 12:36 | 39.95822 | 7.12879 | 34969 ft | 470 kts | 116° |
| 2026-05-06 12:37 | 39.93481 | 7.20856 | 34968 ft | 469 kts | 116° |
| 2026-05-06 12:37 | 39.91139 | 7.28791 | 34961 ft | 469 kts | 116° |
| 2026-05-06 12:38 | 39.88812 | 7.36682 | 34956 ft | 468 kts | 117° |
| 2026-05-06 12:38 | 39.86465 | 7.44586 | 34959 ft | 468 kts | 117° |
| 2026-05-06 12:39 | 39.84125 | 7.52494 | 34957 ft | 468 kts | 117° |
| 2026-05-06 12:39 | 39.81775 | 7.60401 | 34958 ft | 468 kts | 118° |
| 2026-05-06 12:40 | 39.79406 | 7.68302 | 34745 ft | 468 kts | 118° |
| 2026-05-06 12:40 | 39.78228 | 7.72237 | 34502 ft | 467 kts | 119° |
| 2026-05-06 12:40 | 39.77052 | 7.76171 | 34263 ft | 466 kts | 119° |
| 2026-05-06 12:41 | 39.75871 | 7.80101 | 33450 ft | 469 kts | 120° |
| 2026-05-06 12:41 | 39.74681 | 7.84037 | 32409 ft | 475 kts | 120° |
| 2026-05-06 12:41 | 39.73462 | 7.88063 | 31362 ft | 481 kts | 120° |
| 2026-05-06 12:41 | 39.72232 | 7.92121 | 30379 ft | 484 kts | 120° |
| 2026-05-06 12:42 | 39.70999 | 7.96236 | 29184 ft | 493 kts | 117° |
| 2026-05-06 12:42 | 39.70097 | 8.00539 | 28662 ft | 494 kts | 108° |
| 2026-05-06 12:42 | 39.69656 | 8.04976 | 27966 ft | 497 kts | 99° |
| 2026-05-06 12:42 | 39.69455 | 8.09384 | 27299 ft | 491 kts | 99° |
| 2026-05-06 12:43 | 39.69252 | 8.13788 | 26634 ft | 486 kts | 99° |
| 2026-05-06 12:43 | 39.69052 | 8.18146 | 25993 ft | 482 kts | 99° |
| 2026-05-06 12:43 | 39.68852 | 8.22436 | 25353 ft | 471 kts | 98° |
| 2026-05-06 12:43 | 39.68649 | 8.26639 | 24719 ft | 460 kts | 98° |
| 2026-05-06 12:44 | 39.68453 | 8.30740 | 24127 ft | 449 kts | 98° |
| 2026-05-06 12:44 | 39.68264 | 8.34742 | 23545 ft | 437 kts | 98° |
| 2026-05-06 12:44 | 39.68085 | 8.38586 | 22949 ft | 427 kts | 98° |
| 2026-05-06 12:44 | 39.67899 | 8.42394 | 22430 ft | 417 kts | 98° |
| 2026-05-06 12:45 | 39.67713 | 8.46105 | 21937 ft | 407 kts | 98° |
| 2026-05-06 12:45 | 39.67531 | 8.49739 | 21466 ft | 398 kts | 98° |
| 2026-05-06 12:45 | 39.67166 | 8.56891 | 20569 ft | 395 kts | 98° |
| 2026-05-06 12:46 | 39.66983 | 8.60435 | 20139 ft | 393 kts | 98° |
| 2026-05-06 12:46 | 39.66803 | 8.63965 | 19698 ft | 390 kts | 98° |
| 2026-05-06 12:46 | 39.66627 | 8.67464 | 19270 ft | 387 kts | 98° |
| 2026-05-06 12:46 | 39.66458 | 8.70886 | 18846 ft | 384 kts | 98° |
| 2026-05-06 12:47 | 39.66284 | 8.74338 | 18408 ft | 382 kts | 98° |
| 2026-05-06 12:47 | 39.66105 | 8.77796 | 17922 ft | 389 kts | 98° |
| 2026-05-06 12:47 | 39.65925 | 8.81296 | 17448 ft | 386 kts | 97° |
| 2026-05-06 12:47 | 39.65746 | 8.84772 | 16978 ft | 382 kts | 97° |
| 2026-05-06 12:48 | 39.65569 | 8.88167 | 16523 ft | 378 kts | 97° |
| 2026-05-06 12:48 | 39.65385 | 8.91556 | 16054 ft | 376 kts | 97° |
| 2026-05-06 12:48 | 39.65202 | 8.94926 | 15593 ft | 374 kts | 97° |
| 2026-05-06 12:48 | 39.65024 | 8.98297 | 15110 ft | 372 kts | 97° |
| 2026-05-06 12:49 | 39.64644 | 9.01561 | 14652 ft | 366 kts | 108° |
| 2026-05-06 12:49 | 39.63784 | 9.04631 | 14183 ft | 359 kts | 119° |
| 2026-05-06 12:49 | 39.62508 | 9.07381 | 13717 ft | 353 kts | 129° |
| 2026-05-06 12:49 | 39.60897 | 9.09732 | 13209 ft | 346 kts | 140° |
| 2026-05-06 12:50 | 39.59020 | 9.11626 | 12743 ft | 339 kts | 149° |
| 2026-05-06 12:50 | 39.57030 | 9.13267 | 12281 ft | 337 kts | 149° |
| 2026-05-06 12:50 | 39.55060 | 9.14890 | 11827 ft | 334 kts | 149° |
| 2026-05-06 12:50 | 39.53111 | 9.16496 | 11360 ft | 330 kts | 149° |
| 2026-05-06 12:51 | 39.51182 | 9.18089 | 10893 ft | 326 kts | 149° |
| 2026-05-06 12:51 | 39.49306 | 9.19635 | 10605 ft | 320 kts | 149° |
| 2026-05-06 12:51 | 39.47456 | 9.21153 | 10479 ft | 310 kts | 149° |
| 2026-05-06 12:51 | 39.45671 | 9.22616 | 10277 ft | 297 kts | 149° |
| 2026-05-06 12:52 | 39.43950 | 9.24026 | 9939 ft | 290 kts | 149° |
| 2026-05-06 12:52 | 39.42252 | 9.25419 | 9808 ft | 288 kts | 150° |
| 2026-05-06 12:52 | 39.40555 | 9.26808 | 9697 ft | 288 kts | 149° |
| 2026-05-06 12:52 | 39.38865 | 9.28189 | 9535 ft | 288 kts | 149° |
| 2026-05-06 12:53 | 39.37177 | 9.29575 | 9072 ft | 287 kts | 149° |
| 2026-05-06 12:53 | 39.36063 | 9.30490 | 8790 ft | 285 kts | 149° |
| 2026-05-06 12:53 | 39.33830 | 9.32317 | 8224 ft | 283 kts | 149° |
| 2026-05-06 12:53 | 39.32736 | 9.33212 | 8026 ft | 280 kts | 149° |
| 2026-05-06 12:54 | 39.31099 | 9.34548 | 7650 ft | 277 kts | 149° |
| 2026-05-06 12:54 | 39.29477 | 9.35871 | 7291 ft | 275 kts | 149° |
| 2026-05-06 12:54 | 39.27865 | 9.37183 | 6940 ft | 272 kts | 149° |
| 2026-05-06 12:54 | 39.26278 | 9.38477 | 6363 ft | 268 kts | 149° |
| 2026-05-06 12:55 | 39.24620 | 9.39478 | 5702 ft | 261 kts | 172° |
| 2026-05-06 12:55 | 39.22871 | 9.39152 | 5231 ft | 255 kts | 204° |
| 2026-05-06 12:55 | 39.21333 | 9.37982 | 4896 ft | 259 kts | 213° |
| 2026-05-06 12:55 | 39.19901 | 9.36608 | 4553 ft | 260 kts | 216° |
| 2026-05-06 12:56 | 39.18490 | 9.35179 | 4219 ft | 256 kts | 216° |
| 2026-05-06 12:56 | 39.17093 | 9.33785 | 3875 ft | 249 kts | 216° |
| 2026-05-06 12:56 | 39.15764 | 9.32500 | 3755 ft | 228 kts | 214° |
| 2026-05-06 12:56 | 39.14514 | 9.31325 | 3699 ft | 215 kts | 214° |
| 2026-05-06 12:57 | 39.13346 | 9.30249 | 3644 ft | 200 kts | 213° |
| 2026-05-06 12:57 | 39.12368 | 9.28985 | 3466 ft | 201 kts | 239° |
| 2026-05-06 12:57 | 39.12011 | 9.27253 | 3391 ft | 205 kts | 269° |
| 2026-05-06 12:57 | 39.12110 | 9.25421 | 3355 ft | 206 kts | 272° |
| 2026-05-06 12:58 | 39.12217 | 9.23595 | 3309 ft | 204 kts | 272° |
| 2026-05-06 12:58 | 39.12325 | 9.21801 | 3276 ft | 195 kts | 275° |
| 2026-05-06 12:58 | 39.12720 | 9.20166 | 3063 ft | 193 kts | 298° |
| 2026-05-06 12:58 | 39.13551 | 9.18830 | 2830 ft | 191 kts | 318° |
| 2026-05-06 12:59 | 39.14539 | 9.17694 | 2570 ft | 189 kts | 317° |
| 2026-05-06 12:59 | 39.15500 | 9.16593 | 2351 ft | 180 kts | 317° |
| 2026-05-06 12:59 | 39.16403 | 9.15547 | 2116 ft | 169 kts | 317° |
| 2026-05-06 12:59 | 39.17264 | 9.14551 | 1895 ft | 164 kts | 319° |
| 2026-05-06 13:00 | 39.18094 | 9.13592 | 1703 ft | 156 kts | 318° |
| 2026-05-06 13:00 | 39.18888 | 9.12675 | 1473 ft | 151 kts | 317° |
| 2026-05-06 13:00 | 39.19664 | 9.11779 | 1278 ft | 149 kts | 319° |
| 2026-05-06 13:00 | 39.20411 | 9.10914 | 1081 ft | 145 kts | 319° |
| 2026-05-06 13:01 | 39.21133 | 9.10079 | 872 ft | 142 kts | 320° |
| 2026-05-06 13:01 | 39.21862 | 9.09233 | 691 ft | 137 kts | 319° |
| 2026-05-06 13:01 | 39.22561 | 9.08426 | 508 ft | 135 kts | 319° |
| 2026-05-06 13:01 | 39.23254 | 9.07622 | 323 ft | 134 kts | 319° |
| 2026-05-06 13:02 | 39.23947 | 9.06823 | 141 ft | 134 kts | 320° |
| 2026-05-06 13:02 | 39.24627 | 9.06030 | 19 ft | 125 kts | 320° |
| 2026-05-06 13:02 | 39.25150 | 9.05426 | 15 ft | 55 kts | 318° |
| 2026-05-06 13:02 | 39.25273 | 9.05294 | 14 ft | 8 kts | 347° |
| 2026-05-06 13:03 | 39.25321 | 9.05332 | 15 ft | 8 kts | 46° |
| 2026-05-06 13:03 | 39.25349 | 9.05372 | 15 ft | 5 kts | 49° |
| 2026-05-06 13:03 | 39.25390 | 9.05433 | 15 ft | 13 kts | 51° |
| 2026-05-06 13:03 | 39.25397 | 9.05527 | 15 ft | 10 kts | 102° |
| 2026-05-06 13:04 | 39.25391 | 9.05563 | 15 ft | 0 kts | 101° |
| 2026-05-06 13:04 | 39.25387 | 9.05583 | 15 ft | 4 kts | 106° |
| 2026-05-06 13:04 | 39.25377 | 9.05611 | 17 ft | 3 kts | 120° |
| 2026-05-06 13:04 | 39.25357 | 9.05641 | 15 ft | 6 kts | 133° |
| 2026-05-06 13:05 | 39.25345 | 9.05683 | 15 ft | 5 kts | 87° |
| 2026-05-06 13:05 | 39.25342 | 9.05719 | 15 ft | 4 kts | 105° |
| 2026-05-06 13:05 | 39.25334 | 9.05744 | 16 ft | 3 kts | 112° |
| 2026-05-06 13:05 | 39.25329 | 9.05761 | 16 ft | 2 kts | 112° |
| 2026-05-06 13:06 | 39.25325 | 9.05772 | 15 ft | 3 kts | 113° |
| 2026-05-06 13:06 | 39.25318 | 9.05793 | 16 ft | 2 kts | 113° |
| 2026-05-06 13:06 | 39.25316 | 9.05800 | 17 ft | 0 kts | 112° |